Impacts METAR Board
IDs:

KLGA - New York/La Guardia, NY, US

Updated at: 1300 UTC 23 Jun 2018
Potential Impact None Slight Moderate High
Time 23/01Z 23/02Z 23/03Z 23/04Z 23/05Z 23/06Z 23/07Z 23/08Z 23/09Z 23/10Z 23/11Z 23/12Z 23/13Z
Temp69 68 68 65 64 64 65 65 65 66 66 65 64
Dewpt59 59 59 58 59 59 58 56 54 50 49 52 54
Altim29.99 30.00 30.01 29.99 29.97 29.96 29.94 29.92 29.91 29.90 29.89 29.89 29.89
VIS10 10 10 6 10 10 10 10 10 10 10 10 7
CIG140 -- 90 60 70 37 28 25 24 33 20 19 16
CoverOVCCLROVCOVCBKNOVCOVCOVCOVCOVCOVCOVCOVC
FltCatVFRVFRVFRVFRVFRVFRMVFRMVFRMVFRVFRMVFRMVFRMVFR
WX------RA------------------
WDir908010060506060706070606060
WSpd10 10 8 7 11 11 10 8 9 12 10 13 14
WGst-- -- -- -- -- -- -- -- -- -- -- -- --
Raw hourly METARs
KLGA 230051Z 09010KT 10SM FEW020 BKN140 OVC250 21/15 A2999 RMK AO2 RAB2355E32 SLP155 P0000 T02060150
KLGA 230151Z 08010KT 10SM CLR 20/15 A3000 RMK AO2 SLP157 T02000150
KLGA 230251Z 10008KT 10SM FEW021 SCT039 BKN090 OVC130 20/15 A3001 RMK AO2 SLP161 60000 T02000150 53004
KLGA 230351Z 06007KT 6SM RA SCT038 BKN060 OVC120 18/14 A2999 RMK AO2 RAB0257 SLP157 P0004 T01830144
KLGA 230451Z 05011KT 10SM FEW010 BKN070 BKN090 BKN130 18/15 A2997 RMK AO2 RAE42 SLP148 P0006 T01780150 402390178
KLGA 230551Z 06011KT 10SM BKN037 OVC060 18/15 A2996 RMK AO2 SLP144 60010 T01780150 10211 20178 56017
KLGA 230651Z 06010KT 10SM OVC028 18/14 A2994 RMK AO2 SLP137 T01830144
KLGA 230751Z 07008KT 10SM OVC025 18/13 A2992 RMK AO2 SLP132 T01830133
KLGA 230851Z 06009KT 10SM OVC024 18/12 A2991 RMK AO2 RAB19E28 SLP128 P0000 60000 T01830122 56016
KLGA 230951Z 07012KT 10SM FEW025 BKN033 OVC050 19/10 A2990 RMK AO2 SLP125 T01890100
KLGA 231051Z 06010KT 10SM OVC020 19/09 A2989 RMK AO2 SLP123 T01890094
KLGA 231151Z 06013KT 10SM OVC019 18/11 A2989 RMK AO2 SLP123 60000 70010 T01830111 10189 20178 56005
KLGA 231251Z 06014KT 7SM OVC016 18/12 A2989 RMK AO2 SLP120 T01780122



Page loaded:  13:42 UTC  |   06:42 AM Pacific  |   07:42 AM Mountain  |   08:42 AM Central  |   09:42 AM Eastern

 

ADVISORIES

FORECASTS

FORECASTS

OBSERVATIONS

USER TOOLS

ABOUT US